Time;durP1;ratioP1;P1;durP2;ratioP2;P2;SDS_P1;SDS_P2;PMS_P1;PMS_P2;Temp;Humidity;BMP_temperature;BMP_pressure;BME280_temperature;BME280_humidity;BME280_pressure;Samples;Min_cycle;Max_cycle;Signal;HPM_P1;HPM_P2
2023/01/07 00:03:00;;;;;;;;;;;;;;;;;;;;;
2023/01/07 00:10:02;;;;;;;;;;;;;;;9.96;72.40;99360.98;232914;1193;138469;-69
2023/01/07 00:22:32;;;;;;;11.80;8.40;;;;;;;9.90;72.21;99367.83;232163;1196;138669;-67
2023/01/07 00:29:42;;;;;;;12.50;9.00;;;;;;;9.93;72.49;99372.08;231389;1200;140375;-68
2023/01/07 01:26:11;;;;;;;;;;;;;;;;;;;;;
2023/01/07 01:39:27;;;;;;;15.10;10.80;;;;;;;9.94;71.69;99406.81;232778;1193;139941;-68
2023/01/07 01:53:50;;;;;;;14.70;10.70;;;;;;;10.05;71.87;99415.58;231536;1203;139490;-68
2023/01/07 02:00:17;;;;;;;;;;;;;;;;;;;;;
2023/01/07 02:15:07;;;;;;;;;;;;;;;;;;;;;
2023/01/07 02:21:20;;;;;;;;;;;;;;;;;;;;;
2023/01/07 02:28:18;;;;;;;16.80;10.60;;;;;;;9.91;70.77;99423.04;231375;1199;140354;-65
2023/01/07 02:34:56;;;;;;;;;;;;;;;;;;;;;
2023/01/07 02:42:16;;;;;;;14.20;10.60;;;;;;;9.82;70.83;99438.62;232415;1197;138853;-69
2023/01/07 02:55:55;;;;;;;14.60;10.80;;;;;;;9.86;70.57;99439.30;231989;1198;124963;-68
2023/01/07 03:17:10;;;;;;;14.40;11.00;;;;;;;9.83;70.62;99449.58;230664;1200;141275;-67
2023/01/07 03:23:09;;;;;;;14.20;11.20;;;;;;;9.84;70.33;99442.60;231564;1199;139305;-71
2023/01/07 03:29:37;;;;;;;14.90;11.30;;;;;;;9.86;70.31;99446.59;233776;1199;139139;-68
2023/01/07 03:55:07;;;;;;;;;;;;;;;;;;;;;
2023/01/07 04:01:26;;;;;;;;;;;;;;;;;;;;;
2023/01/07 04:07:31;;;;;;;;;;;;;;;;;;;;;
2023/01/07 04:14:03;;;;;;;;;;;;;;;;;;;;;
2023/01/07 04:20:32;;;;;;;;;;;;;;;;;;;;;
2023/01/07 05:11:20;;;;;;;;;;;;;;;;;;;;;
2023/01/07 05:25:25;;;;;;;;;;;;;;;;;;;;;
2023/01/07 05:31:40;;;;;;;;;;;;;;;;;;;;;
2023/01/07 05:45:13;;;;;;;20.80;15.60;;;;;;;9.11;70.22;99475.02;231215;1201;139280;-68
2023/01/07 06:26:39;;;;;;;19.30;13.80;;;;;;;7.62;69.67;99501.06;231090;1205;138907;-70
2023/01/07 06:32:49;;;;;;;17.80;14.30;;;;;;;7.49;69.79;99507.40;231018;1205;139837;-70
2023/01/07 06:45:25;;;;;;;;;;;;;;;;;;;;;
2023/01/07 06:58:17;;;;;;;;;;;;;;;;;;;;;
2023/01/07 07:17:15;;;;;;;24.30;16.00;;;;;;;7.55;71.98;99517.04;231523;1201;126168;-68
2023/01/07 07:27:37;;;;;;;25.00;18.60;;;;;;;7.73;71.12;99518.58;230636;1212;647929;-72
2023/01/07 07:34:05;;;;;;;24.70;16.90;;;;;;;7.76;70.75;99516.85;231229;1201;139219;-69
2023/01/07 07:40:03;;;;;;;;;;;;;;;;;;;;;
2023/01/07 08:57:32;;;;;;;;;;;;;;;;;;;;;
2023/01/07 10:10:05;;;;;;;;;;;;;;;;;;;;;
2023/01/07 10:23:52;;;;;;;24.00;17.40;;;;;;;10.27;69.39;99493.88;238323;1183;140300;-66
2023/01/07 10:56:38;;;;;;;;;;;;;;;;;;;;;
2023/01/07 11:01:57;;;;;;;27.70;19.10;;;;;;;11.42;66.79;99446.43;239105;1180;140148;-68
2023/01/07 11:14:50;;;;;;;15.30;10.70;;;;;;;11.50;65.35;99445.92;238922;1180;139304;-66
2023/01/07 11:20:02;;;;;;;16.00;11.00;;;;;;;11.47;64.49;99444.35;239275;1181;139531;-66
2023/01/07 11:35:06;;;;;;;13.60;9.30;;;;;;;11.47;63.26;99430.45;236166;1192;140546;-66
2023/01/07 11:40:27;;;;;;;14.90;9.90;;;;;;;11.50;62.93;99424.44;236775;1189;139745;-67
2023/01/07 11:46:52;;;;;;;13.70;10.00;;;;;;;11.59;62.92;99413.78;238138;1186;139758;-66
2023/01/07 11:52:19;;;;;;;72.50;47.50;;;;;;;11.66;62.74;99405.39;238415;1184;139475;-66
2023/01/07 11:58:13;;;;;;;13.90;9.70;;;;;;;11.73;62.57;99396.59;239017;1183;140962;-65
2023/01/07 12:04:33;;;;;;;14.50;8.50;;;;;;;11.84;62.10;99388.27;239466;1179;138736;-66
2023/01/07 12:10:18;;;;;;;13.20;9.00;;;;;;;11.94;61.68;99387.31;239241;1183;139178;-65
2023/01/07 12:16:18;;;;;;;10.20;7.30;;;;;;;11.94;60.77;99382.33;239198;1180;139025;-66
2023/01/07 12:22:24;;;;;;;103.20;70.50;;;;;;;11.96;61.14;99377.38;239361;1180;138874;-65
2023/01/07 12:28:35;;;;;;;;;;;;;;;;;;;;;
2023/01/07 12:34:15;;;;;;;4.20;3.30;;;;;;;12.08;60.41;99357.61;239357;1180;139214;-66
2023/01/07 12:40:22;;;;;;;68.50;47.30;;;;;;;12.19;60.21;99354.96;239440;1179;139251;-65
2023/01/07 12:46:09;;;;;;;10.10;6.00;;;;;;;12.32;59.98;99345.58;239015;1181;138959;-66
2023/01/07 12:53:58;;;;;;;;;;;;;;;;;;;;;
2023/01/07 12:59:40;;;;;;;6.90;4.80;;;;;;;12.65;56.49;99343.50;234413;1196;139141;-65
2023/01/07 13:06:06;;;;;;;5.30;2.80;;;;;;;12.66;56.03;99338.21;234436;1197;138764;-68
2023/01/07 13:18:48;;;;;;;5.60;2.70;;;;;;;12.42;54.87;99329.66;234308;1198;138590;-70
2023/01/07 13:24:39;;;;;;;;;;;;;;;;;;;;;
2023/01/07 13:30:55;;;;;;;203.30;139.20;;;;;;;12.30;55.81;99327.73;234769;1196;138893;-66
2023/01/07 13:37:05;;;;;;;9.00;5.70;;;;;;;12.40;55.55;99329.25;234701;1195;140344;-67
2023/01/07 13:42:36;;;;;;;8.50;6.60;;;;;;;12.38;56.17;99329.73;234883;1193;138639;-66
2023/01/07 13:49:39;;;;;;;12.60;9.10;;;;;;;12.24;57.69;99330.11;234749;1197;139563;-68
2023/01/07 13:54:54;;;;;;;12.80;8.60;;;;;;;12.09;58.56;99333.03;234503;1195;139706;-69
2023/01/07 14:00:52;;;;;;;71.60;52.20;;;;;;;11.99;58.88;99327.08;234462;1195;139011;-68
2023/01/07 14:06:38;;;;;;;13.60;9.20;;;;;;;11.91;59.50;99327.96;234417;1195;139283;-67
2023/01/07 14:12:25;;;;;;;14.00;8.50;;;;;;;11.79;59.47;99326.55;234534;1195;139593;-66
2023/01/07 14:18:53;;;;;;;25.80;17.70;;;;;;;11.68;60.12;99321.73;234444;1195;139022;-67
2023/01/07 14:24:34;;;;;;;14.00;8.60;;;;;;;11.53;60.47;99327.21;234392;1198;139748;-66
2023/01/07 14:30:25;;;;;;;11.70;8.60;;;;;;;11.38;60.27;99326.72;234772;1195;139184;-66
2023/01/07 14:36:19;;;;;;;87.90;59.10;;;;;;;11.24;60.95;99322.27;234582;1195;139671;-65
2023/01/07 14:43:00;;;;;;;14.60;11.30;;;;;;;11.17;61.65;99318.44;234483;1195;139630;-67
2023/01/07 14:48:34;;;;;;;15.40;10.70;;;;;;;10.96;61.52;99314.00;234364;1196;140221;-67
2023/01/07 14:54:32;;;;;;;15.00;10.50;;;;;;;10.78;61.74;99311.46;234489;1195;139911;-67
2023/01/07 15:00:48;;;;;;;14.20;10.40;;;;;;;10.60;62.19;99310.39;234537;1198;138926;-67
2023/01/07 15:06:21;;;;;;;13.50;10.20;;;;;;;10.42;62.46;99310.00;234646;1195;139017;-68
2023/01/07 15:55:34;;;;;;;18.70;12.00;;;;;;;9.29;64.13;99317.03;232324;1210;637014;-69
2023/01/07 16:01:22;;;;;;;18.00;11.30;;;;;;;9.14;64.77;99304.23;234227;1199;139280;-68
2023/01/07 16:07:20;;;;;;;35.40;23.80;;;;;;;9.18;66.12;99299.22;235224;1192;139105;-67
2023/01/07 16:13:44;;;;;;;24.30;13.40;;;;;;;9.21;65.27;99294.30;235129;1193;139926;-68
2023/01/07 16:19:43;;;;;;;65.00;40.40;;;;;;;9.02;65.41;99293.66;235216;1192;139154;-68
2023/01/07 16:26:33;;;;;;;28.70;18.50;;;;;;;9.01;66.52;99290.20;235224;1192;138505;-68
2023/01/07 16:32:08;;;;;;;24.30;14.40;;;;;;;8.97;66.59;99278.34;235158;1192;138956;-69
2023/01/07 16:38:24;;;;;;;30.20;20.50;;;;;;;9.02;67.09;99272.79;235148;1192;140169;-69
2023/01/07 16:44:43;;;;;;;25.00;17.50;;;;;;;9.11;67.18;99272.14;235316;1193;139797;-68
2023/01/07 16:50:52;;;;;;;27.60;19.50;;;;;;;9.11;67.31;99269.31;235303;1195;139311;-67
2023/01/07 17:56:40;;;;;;;46.50;28.60;;;;;;;8.18;67.84;99249.02;231879;1212;645996;-67
2023/01/07 18:02:50;;;;;;;41.50;27.10;;;;;;;8.10;68.10;99251.02;234509;1196;139127;-67
2023/01/07 18:09:03;;;;;;;;;;;;;;;;;;;;;
2023/01/07 18:21:56;;;;;;;;;;;;;;;;;;;;;
2023/01/07 18:28:23;;;;;;;39.70;27.60;;;;;;;7.65;67.94;99253.51;234654;1196;139455;-68
2023/01/07 18:42:15;;;;;;;38.60;25.80;;;;;;;7.46;68.16;99259.67;234209;1196;140140;-66
2023/01/07 19:14:27;;;;;;;39.90;26.80;;;;;;;7.31;67.72;99256.84;234040;1198;125452;-65
2023/01/07 19:20:13;;;;;;;42.80;27.40;;;;;;;7.10;67.59;99259.02;234688;1193;138270;-65
2023/01/07 19:25:58;;;;;;;40.50;26.60;;;;;;;6.97;67.92;99263.48;234705;1193;139535;-71
2023/01/07 19:32:23;;;;;;;39.00;25.60;;;;;;;6.85;68.04;99262.56;234778;1193;138442;-70
2023/01/07 19:38:06;;;;;;;40.20;26.60;;;;;;;6.77;67.80;99264.16;234735;1193;139283;-68
2023/01/07 19:43:26;;;;;;;;;;;;;;;;;;;;;
2023/01/07 19:55:49;;;;;;;;;;;;;;;;;;;;;
2023/01/07 20:01:31;;;;;;;41.90;26.80;;;;;;;6.76;67.62;99248.49;233615;1200;139040;-68
2023/01/07 20:21:26;;;;;;;43.60;27.80;;;;;;;6.38;67.83;99253.62;233082;1208;139063;-68
2023/01/07 20:26:48;;;;;;;40.80;27.60;;;;;;;6.31;67.91;99244.59;233418;1206;139155;-69
2023/01/07 20:32:40;;;;;;;125.20;76.60;;;;;;;6.23;69.21;99233.11;233846;1200;139218;-70
2023/01/07 20:38:11;;;;;;;;;;;;;;;;;;;;;
2023/01/07 20:44:34;;;;;;;42.70;29.50;;;;;;;6.58;68.29;99231.48;233912;1200;139470;-69
2023/01/07 20:51:09;;;;;;;;;;;;;;;;;;;;;
2023/01/07 20:56:25;;;;;;;50.00;31.60;;;;;;;6.44;67.31;99230.13;234410;1196;139684;-66
2023/01/07 21:02:42;;;;;;;;;;;;;;;;;;;;;
2023/01/07 21:09:00;;;;;;;50.60;33.90;;;;;;;6.18;67.43;99224.88;234232;1196;138818;-67
2023/01/07 21:15:15;;;;;;;;;;;;;;;;;;;;;
2023/01/07 21:21:23;;;;;;;;;;;;;;;;;;;;;
2023/01/07 22:01:30;;;;;;;;;;;;;;;;;;;;;
2023/01/07 22:08:46;;;;;;;50.40;35.70;;;;;;;5.57;67.28;99216.03;234070;1196;139018;-66
2023/01/07 22:15:04;;;;;;;;;;;;;;;;;;;;;
2023/01/07 22:22:19;;;;;;;48.70;32.60;;;;;;;5.35;66.89;99217.56;234115;1198;138990;-67
2023/01/07 22:36:17;;;;;;;;;;;;;;;;;;;;;
2023/01/07 22:42:50;;;;;;;52.20;34.50;;;;;;;5.09;67.82;99198.48;234588;1195;138912;-67
2023/01/07 22:49:14;;;;;;;;;;;;;;;;;;;;;
2023/01/07 23:01:42;;;;;;;;;;;;;;;;;;;;;
2023/01/07 23:08:00;;;;;;;50.50;34.50;;;;;;;5.26;68.47;99168.66;234520;1195;142145;-69
2023/01/07 23:21:07;;;;;;;50.50;33.80;;;;;;;5.43;68.82;99157.59;233545;1200;139872;-71
2023/01/07 23:55:23;;;;;;;46.70;31.40;;;;;;;5.48;69.64;99116.60;234115;1200;138784;-70
